• Join FlightAware (Why Join?)
  • Login
  • US Flag 
12:20AM EDT


 

Airport Tracker/Info


-or-


 

Live Flight TrackerFlight Track Log ✈ ASQ4252 ✈ 09-Jun-2013 ✈ KMSY - KIAH

Flight Track Log - Related Links

Times and Time Zones

All times are in EDT time to prevent confusion due to time zone crossing. See the ASQ4252 flight status page for this flight to view local times or setup timezone preferences in your user account.

Time Position Orientation Groundspeed Altitude Reporting Facility
EDT Latitude Longitude Course Direction KTS MPH feet Rate Location/Type
10:40PM 29.8207 -90.6572 244° Southwest  Level FlightAware Approximate
10:41PM 29.8064 -90.7682 257° West  Level FlightAware Approximate
10:42PM 29.7843 -90.8787 257° West  Level FlightAware Approximate
10:43PM 29.7608 -90.9889 256° West  Level FlightAware Approximate
10:44PM 29.7372 -91.0989 256° West  Level FlightAware Approximate
10:45PM 29.7110 -91.2082 255° West  Level FlightAware Approximate
10:46PM 29.6857 -91.3177 255° West  Level FlightAware Approximate
10:47PM 29.6624 -91.4277 260° West  Level FlightAware Approximate
10:48PM 29.6453 -91.5392 260° West  Level FlightAware Approximate
10:49PM 29.6266 -91.6504 257° West  Level FlightAware Approximate
10:50PM 29.6045 -91.7607 257° West  Level FlightAware Approximate
10:51PM 29.5675 -91.8650 240° Southwest  Level FlightAware Approximate
10:52PM 29.5481 -91.9758 257° West  Level FlightAware Approximate
10:53PM 29.5255 -92.0859 257° West  Level FlightAware Approximate
10:54PM 29.5028 -92.1960 257° West  Level FlightAware Approximate
10:55PM 29.4800 -92.3060 257° West  Level FlightAware Approximate
10:56PM 29.4571 -92.4159 257° West  Level FlightAware Approximate
10:57PM 29.4556 -92.5277 275° West  Level FlightAware Approximate
10:58PM 29.4636 -92.6404 275° West  Level FlightAware Approximate
10:59PM 29.4698 -92.7533 273° West  Level FlightAware Approximate
11:00PM 29.4748 -92.8662 273° West  Level FlightAware Approximate
11:01PM 29.4796 -92.9791 273° West  Level FlightAware Approximate
11:02PM 29.4843 -93.0920 273° West  Level FlightAware Approximate
11:03PM 29.4886 -93.2050 273° West  Level FlightAware Approximate
11:04PM 29.4928 -93.3180 272° West  Level FlightAware Approximate
11:05PM 29.4969 -93.4310 272° West  Level FlightAware Approximate
11:06PM 29.5000 -93.5440 270° West  Level FlightAware Approximate
11:07PM 29.5000 -93.6571 270° West  Level FlightAware Approximate
11:08PM 29.5072 -93.7698 276° West  Level FlightAware Approximate
11:09PM 29.5166 -93.8824 275° West  Level FlightAware Approximate
11:10PM 29.5167 -93.9955 270° West  Level FlightAware Approximate
11:11PM 29.5167 -94.1087 270° West  Level FlightAware Approximate
11:12PM 29.5194 -94.2215 278° West  Level FlightAware Approximate
11:13PM 29.5333 -94.3335 270° West  Level FlightAware Approximate
11:14PM 29.5705 -94.4367 296° West  Level FlightAware Approximate
11:15PM 29.6091 -94.5408 293° West  Level FlightAware Approximate
11:16PM 29.6480 -94.6448 293° West  Level FlightAware Approximate
11:17PM 29.6990 -94.7408 294° West  Level FlightAware Approximate
11:18PM 29.7389 -94.8444 294° West  Level FlightAware Approximate
11:19PM 29.7805 -94.9471 298° West  Level FlightAware Approximate
11:20PM 29.8262 -95.0476 298° West  Level FlightAware Approximate
11:21PM 29.8670 -95.1507 300° West  Level FlightAware Approximate
11:22PM 29.9169 -95.2447 311° West  Level FlightAware Approximate
11:23PM 29.9813 -95.3306 311° West  Level FlightAware Approximate
11:24PM 29.9833 -95.3333 311° West  Level FlightAware Approximate
11:25PM 29.9844 -95.3414 311° West  Level Estimated
11:26PM 29.9833 -95.3333 311° West  Level FlightAware Approximate
11:27PM 29.9844 -95.3414 311° West  Level Estimated